Time;durP1;ratioP1;P1;durP2;ratioP2;P2;SDS_P1;SDS_P2;PMS_P1;PMS_P2;Temp;Humidity;BMP_temperature;BMP_pressure;BME280_temperature;BME280_humidity;BME280_pressure;Samples;Min_cycle;Max_cycle;Signal;HPM_P1;HPM_P2
2022/12/19 00:01:06;;;;;;;16.73;10.53;;;;;;;;;;5012307;28;20436;-50
2022/12/19 00:03:33;;;;;;;16.17;10.33;;;;;;;;;;5011931;28;20432;-50
2022/12/19 00:06:01;;;;;;;13.87;10.10;;;;;;;;;;5011929;28;20440;-49
2022/12/19 00:08:27;;;;;;;14.03;9.90;;;;;;;;;;5011931;28;20802;-51
2022/12/19 00:10:54;;;;;;;14.90;10.40;;;;;;;;;;5011686;28;20476;-50
2022/12/19 00:13:20;;;;;;;13.07;9.67;;;;;;;;;;5012168;28;20432;-50
2022/12/19 00:15:46;;;;;;;17.63;11.40;;;;;;;;;;5011823;28;20433;-50
2022/12/19 00:18:12;;;;;;;15.73;10.37;;;;;;;;;;5011880;28;20941;-50
2022/12/19 00:20:40;;;;;;;16.57;10.93;;;;;;;;;;5011033;28;20439;-50
2022/12/19 00:23:06;;;;;;;16.73;10.63;;;;;;;;;;5011756;28;20531;-50
2022/12/19 00:25:32;;;;;;;14.97;10.60;;;;;;;;;;5011998;28;20446;-50
2022/12/19 00:27:58;;;;;;;19.80;11.57;;;;;;;;;;5011742;28;20514;-50
2022/12/19 00:30:24;;;;;;;15.37;11.27;;;;;;;;;;5011981;28;20669;-49
2022/12/19 00:32:50;;;;;;;16.03;11.10;;;;;;;;;;5011678;28;20961;-49
2022/12/19 00:35:16;;;;;;;16.63;11.03;;;;;;;;;;5011554;28;20895;-48
2022/12/19 00:37:44;;;;;;;15.43;11.17;;;;;;;;;;5011700;28;20451;-48
2022/12/19 00:40:10;;;;;;;17.27;11.23;;;;;;;;;;5011668;28;20480;-50
2022/12/19 00:42:36;;;;;;;15.87;10.63;;;;;;;;;;5011679;28;20799;-48
2022/12/19 00:45:03;;;;;;;15.20;11.90;;;;;;;;;;5011592;28;20539;-48
2022/12/19 00:47:29;;;;;;;19.00;12.37;;;;;;;;;;5011696;28;20519;-48
2022/12/19 00:49:55;;;;;;;18.03;11.60;;;;;;;;;;5011726;28;20524;-48
2022/12/19 00:52:21;;;;;;;17.23;11.67;;;;;;;;;;5011640;28;20444;-49
2022/12/19 00:54:48;;;;;;;18.60;12.67;;;;;;;;;;5011530;28;20459;-49
2022/12/19 00:57:14;;;;;;;20.23;13.93;;;;;;;;;;5011579;28;20437;-49
2022/12/19 00:59:41;;;;;;;18.90;12.93;;;;;;;;;;5011292;28;20444;-53
2022/12/19 01:02:07;;;;;;;17.70;12.57;;;;;;;;;;5011686;28;20487;-48
2022/12/19 01:04:34;;;;;;;22.67;12.87;;;;;;;;;;5011403;28;20437;-47
2022/12/19 01:07:00;;;;;;;19.13;12.47;;;;;;;;;;5011404;28;20524;-48
2022/12/19 01:09:26;;;;;;;22.23;14.90;;;;;;;;;;5011624;28;20520;-47
2022/12/19 01:14:38;;;;;;;25.00;14.83;;;;;;;;;;5011441;28;20429;-48
2022/12/19 01:17:04;;;;;;;19.77;13.73;;;;;;;;;;5007942;28;20429;-47
2022/12/19 01:19:30;;;;;;;22.90;14.53;;;;;;;;;;5011440;28;20433;-46
2022/12/19 01:21:56;;;;;;;26.00;15.67;;;;;;;;;;5011180;28;20483;-46
2022/12/19 01:24:22;;;;;;;25.00;15.40;;;;;;;;;;5011359;28;20994;-47
2022/12/19 01:26:48;;;;;;;24.90;15.27;;;;;;;;;;5011163;28;20436;-48
2022/12/19 01:29:15;;;;;;;23.63;15.83;;;;;;;;;;5011263;28;20947;-48
2022/12/19 01:31:41;;;;;;;20.63;14.90;;;;;;;;;;5012894;28;20539;-48
2022/12/19 01:34:07;;;;;;;24.40;15.37;;;;;;;;;;5014764;28;20836;-49
2022/12/19 01:36:34;;;;;;;25.03;15.83;;;;;;;;;;5014518;28;20547;-48
2022/12/19 01:39:00;;;;;;;25.67;16.40;;;;;;;;;;5014185;28;20241;-48
2022/12/19 01:41:26;;;;;;;26.70;17.23;;;;;;;;;;5014563;28;20428;-47
2022/12/19 01:43:54;;;;;;;26.03;17.30;;;;;;;;;;5014631;28;20832;-48
2022/12/19 01:46:23;;;;;;;25.67;17.27;;;;;;;;;;5014445;28;20440;-47
2022/12/19 01:48:49;;;;;;;26.67;17.57;;;;;;;;;;5014190;28;20818;-48
2022/12/19 01:51:18;;;;;;;26.40;17.27;;;;;;;;;;5014112;28;20480;-48
2022/12/19 01:53:45;;;;;;;27.07;17.27;;;;;;;;;;5014124;28;20939;-48
2022/12/19 01:56:12;;;;;;;29.80;17.33;;;;;;;;;;5014114;28;20499;-48
2022/12/19 01:58:41;;;;;;;25.10;16.90;;;;;;;;;;5014192;28;21026;-48
2022/12/19 02:01:07;;;;;;;27.83;17.67;;;;;;;;;;5014425;28;20453;-49
2022/12/19 02:03:35;;;;;;;26.80;17.10;;;;;;;;;;5014007;28;20510;-48
2022/12/19 02:06:02;;;;;;;22.47;15.73;;;;;;;;;;5013748;28;20448;-48
2022/12/19 02:08:28;;;;;;;26.43;17.13;;;;;;;;;;5013889;28;20425;-48
2022/12/19 02:10:54;;;;;;;28.20;17.83;;;;;;;;;;5014270;28;20534;-48
2022/12/19 02:13:20;;;;;;;25.07;16.93;;;;;;;;;;5013733;28;20442;-48
2022/12/19 02:15:50;;;;;;;26.60;16.73;;;;;;;;;;5013662;28;20853;-47
2022/12/19 02:18:20;;;;;;;27.07;17.10;;;;;;;;;;5013647;28;20440;-47
2022/12/19 02:21:01;;;;;;;25.70;15.87;;;;;;;;;;5013622;28;20449;-47
2022/12/19 02:23:54;;;;;;;27.33;17.77;;;;;;;;;;5013606;28;20459;-47
2022/12/19 02:26:28;;;;;;;23.93;16.97;;;;;;;;;;4967396;28;20447;-49
2022/12/19 02:28:59;;;;;;;27.43;17.57;;;;;;;;;;5013608;28;20442;-48
2022/12/19 02:31:29;;;;;;;26.80;16.97;;;;;;;;;;5013697;28;20485;-48
2022/12/19 02:34:00;;;;;;;25.33;17.50;;;;;;;;;;5013491;28;20845;-48
2022/12/19 02:36:29;;;;;;;24.07;16.37;;;;;;;;;;5013690;28;20444;-48
2022/12/19 02:38:57;;;;;;;25.37;17.13;;;;;;;;;;5013370;28;20472;-49
2022/12/19 02:41:26;;;;;;;26.33;16.37;;;;;;;;;;5013468;28;20442;-49
2022/12/19 02:43:54;;;;;;;25.03;16.23;;;;;;;;;;5012418;28;20445;-47
2022/12/19 02:46:21;;;;;;;27.03;16.93;;;;;;;;;;5013426;28;20472;-49
2022/12/19 02:48:49;;;;;;;26.37;16.70;;;;;;;;;;5013075;28;20930;-49
2022/12/19 02:51:15;;;;;;;23.50;16.30;;;;;;;;;;5012993;28;20574;-47
2022/12/19 02:53:41;;;;;;;24.00;16.33;;;;;;;;;;5013084;28;20803;-49
2022/12/19 02:56:14;;;;;;;24.70;16.70;;;;;;;;;;5013088;28;20800;-48
2022/12/19 02:58:49;;;;;;;23.33;16.03;;;;;;;;;;5013262;28;20539;-48
2022/12/19 03:01:20;;;;;;;26.47;17.07;;;;;;;;;;5012914;28;20439;-48
2022/12/19 03:03:51;;;;;;;25.33;15.73;;;;;;;;;;5012804;28;20441;-48
2022/12/19 03:06:23;;;;;;;23.60;16.43;;;;;;;;;;5012892;28;20540;-48
2022/12/19 03:08:53;;;;;;;25.27;15.87;;;;;;;;;;5012667;28;20445;-48
2022/12/19 03:11:21;;;;;;;24.70;16.57;;;;;;;;;;5012784;28;20473;-48
2022/12/19 03:13:49;;;;;;;24.17;16.57;;;;;;;;;;5012577;28;20445;-49
2022/12/19 03:16:15;;;;;;;26.00;16.47;;;;;;;;;;5012602;28;21001;-52
2022/12/19 03:18:42;;;;;;;24.87;16.03;;;;;;;;;;5012650;28;20455;-48
2022/12/19 03:21:11;;;;;;;25.40;16.40;;;;;;;;;;5013044;28;20463;-47
2022/12/19 03:23:39;;;;;;;25.50;17.40;;;;;;;;;;5012563;28;20858;-47
2022/12/19 03:26:07;;;;;;;25.33;16.43;;;;;;;;;;5012465;28;20456;-48
2022/12/19 03:28:36;;;;;;;27.40;16.77;;;;;;;;;;5012480;28;20870;-48
2022/12/19 03:31:03;;;;;;;24.47;16.73;;;;;;;;;;5012246;28;20468;-48
2022/12/19 03:33:32;;;;;;;27.43;16.67;;;;;;;;;;5012169;28;20436;-48
2022/12/19 03:36:01;;;;;;;25.57;16.40;;;;;;;;;;5012122;28;20543;-48
2022/12/19 03:38:27;;;;;;;27.50;17.07;;;;;;;;;;5012112;28;20475;-48
2022/12/19 03:40:56;;;;;;;26.47;17.23;;;;;;;;;;5012519;28;20437;-48
2022/12/19 03:43:22;;;;;;;25.43;17.00;;;;;;;;;;5012705;28;20469;-48
2022/12/19 03:45:53;;;;;;;25.53;17.30;;;;;;;;;;5012411;28;20488;-47
2022/12/19 03:48:21;;;;;;;27.30;17.17;;;;;;;;;;5012167;28;20441;-47
2022/12/19 03:50:52;;;;;;;24.17;15.83;;;;;;;;;;5011932;28;20473;-47
2022/12/19 03:53:24;;;;;;;25.30;16.87;;;;;;;;;;5012202;28;20479;-47
2022/12/19 03:55:54;;;;;;;29.10;16.97;;;;;;;;;;5012004;28;20528;-47
2022/12/19 03:58:24;;;;;;;29.73;17.13;;;;;;;;;;5012018;28;20459;-47
2022/12/19 04:00:51;;;;;;;25.27;16.47;;;;;;;;;;5011811;28;20955;-48
2022/12/19 04:03:18;;;;;;;24.07;16.90;;;;;;;;;;5012097;28;20440;-47
2022/12/19 04:05:45;;;;;;;23.27;16.63;;;;;;;;;;5011759;28;20487;-48
2022/12/19 04:08:12;;;;;;;26.90;16.23;;;;;;;;;;5012069;28;20854;-48
2022/12/19 04:10:40;;;;;;;26.57;18.37;;;;;;;;;;5011915;28;20479;-48
2022/12/19 04:13:08;;;;;;;26.43;17.80;;;;;;;;;;5012002;28;20462;-47
2022/12/19 04:15:40;;;;;;;28.40;18.00;;;;;;;;;;5011852;28;20436;-47
2022/12/19 04:18:09;;;;;;;25.77;16.67;;;;;;;;;;5011885;28;20483;-48
2022/12/19 04:20:36;;;;;;;27.57;17.33;;;;;;;;;;5011777;28;20480;-46
2022/12/19 04:23:04;;;;;;;28.10;17.20;;;;;;;;;;5011551;28;20445;-47
2022/12/19 04:25:31;;;;;;;28.20;16.73;;;;;;;;;;5011628;28;20939;-46
2022/12/19 04:27:59;;;;;;;26.83;17.93;;;;;;;;;;5011507;28;20443;-46
2022/12/19 04:30:25;;;;;;;25.23;16.30;;;;;;;;;;5011578;28;20484;-47
2022/12/19 04:32:53;;;;;;;26.67;16.83;;;;;;;;;;5011542;28;20951;-46
2022/12/19 04:35:19;;;;;;;26.57;17.40;;;;;;;;;;5011490;28;20472;-47
2022/12/19 04:37:45;;;;;;;24.23;16.30;;;;;;;;;;5011344;28;20927;-47
2022/12/19 04:40:12;;;;;;;26.67;17.23;;;;;;;;;;5011452;28;20534;-47
2022/12/19 04:42:38;;;;;;;24.40;15.43;;;;;;;;;;5011681;28;20447;-46
2022/12/19 04:45:05;;;;;;;24.93;16.23;;;;;;;;;;5011442;28;20441;-46
2022/12/19 04:47:31;;;;;;;25.20;16.90;;;;;;;;;;5011427;28;20463;-46
2022/12/19 04:49:58;;;;;;;26.77;16.53;;;;;;;;;;5011267;28;20863;-46
2022/12/19 04:52:24;;;;;;;25.07;15.90;;;;;;;;;;5011468;28;20494;-47
2022/12/19 04:54:50;;;;;;;24.47;16.93;;;;;;;;;;5011276;28;20527;-46
2022/12/19 04:57:16;;;;;;;25.03;16.63;;;;;;;;;;5011338;28;20193;-46
2022/12/19 04:59:42;;;;;;;24.67;16.13;;;;;;;;;;5011184;28;20213;-46
2022/12/19 05:02:08;;;;;;;24.40;16.90;;;;;;;;;;5011411;28;20490;-46
2022/12/19 05:04:34;;;;;;;23.77;15.87;;;;;;;;;;5011443;28;20538;-47
2022/12/19 05:07:02;;;;;;;23.43;16.80;;;;;;;;;;5013537;28;20664;-47
2022/12/19 05:09:28;;;;;;;25.47;17.30;;;;;;;;;;5015104;28;20456;-46
2022/12/19 05:11:54;;;;;;;27.63;16.83;;;;;;;;;;5015074;28;20472;-46
2022/12/19 05:14:20;;;;;;;25.90;17.33;;;;;;;;;;5015104;28;20439;-46
2022/12/19 05:16:46;;;;;;;22.43;16.00;;;;;;;;;;5014891;28;20665;-46
2022/12/19 05:19:12;;;;;;;23.43;16.30;;;;;;;;;;5014930;28;20660;-47
2022/12/19 05:21:38;;;;;;;25.07;17.07;;;;;;;;;;5014919;28;20433;-46
2022/12/19 05:24:05;;;;;;;28.30;17.83;;;;;;;;;;5014705;28;20259;-46
2022/12/19 05:26:32;;;;;;;25.47;16.97;;;;;;;;;;5014786;28;20208;-46
2022/12/19 05:28:58;;;;;;;23.77;16.30;;;;;;;;;;5014628;28;20494;-46
2022/12/19 05:31:24;;;;;;;27.13;17.50;;;;;;;;;;5014806;28;20476;-46
2022/12/19 05:33:50;;;;;;;25.43;17.50;;;;;;;;;;5014455;28;20221;-46
2022/12/19 05:36:17;;;;;;;29.90;18.20;;;;;;;;;;5014451;28;20441;-46
2022/12/19 05:38:43;;;;;;;26.80;17.53;;;;;;;;;;5014415;28;20469;-47
2022/12/19 05:41:12;;;;;;;27.87;17.67;;;;;;;;;;5014715;28;20854;-47
2022/12/19 05:43:38;;;;;;;27.30;17.00;;;;;;;;;;5014634;28;20436;-47
2022/12/19 05:46:04;;;;;;;27.13;17.10;;;;;;;;;;5014410;28;20436;-47
2022/12/19 05:48:30;;;;;;;26.80;17.17;;;;;;;;;;5014396;28;20444;-47
2022/12/19 05:50:57;;;;;;;30.23;18.77;;;;;;;;;;5014128;28;20530;-47
2022/12/19 05:53:23;;;;;;;27.13;18.57;;;;;;;;;;5014566;28;20465;-47
2022/12/19 05:55:49;;;;;;;25.43;17.53;;;;;;;;;;5014170;28;20524;-47
2022/12/19 05:58:16;;;;;;;29.27;17.97;;;;;;;;;;5014208;28;20872;-47
2022/12/19 06:00:42;;;;;;;29.70;18.20;;;;;;;;;;5014029;28;20437;-47
2022/12/19 06:03:08;;;;;;;27.73;18.13;;;;;;;;;;5014228;28;20524;-47
2022/12/19 06:05:37;;;;;;;27.20;18.00;;;;;;;;;;5014083;28;20197;-47
2022/12/19 06:08:03;;;;;;;30.27;19.63;;;;;;;;;;5013936;28;20214;-47
2022/12/19 06:10:29;;;;;;;27.03;17.53;;;;;;;;;;5013831;28;20978;-47
2022/12/19 06:12:55;;;;;;;29.57;19.27;;;;;;;;;;5013894;28;20443;-47
2022/12/19 06:15:22;;;;;;;32.03;19.60;;;;;;;;;;5013998;28;20444;-46
2022/12/19 06:17:52;;;;;;;32.67;20.00;;;;;;;;;;5012571;28;20471;-47
2022/12/19 06:20:18;;;;;;;28.33;19.17;;;;;;;;;;5013862;28;20440;-47
2022/12/19 06:22:44;;;;;;;30.57;19.47;;;;;;;;;;5013587;28;20872;-47
2022/12/19 06:25:10;;;;;;;30.27;19.40;;;;;;;;;;5013855;28;20212;-47
2022/12/19 06:27:36;;;;;;;32.97;20.10;;;;;;;;;;5013711;28;20198;-47
2022/12/19 06:30:02;;;;;;;29.50;19.80;;;;;;;;;;5013464;28;20939;-48
2022/12/19 06:32:30;;;;;;;31.60;19.90;;;;;;;;;;5013454;28;20479;-46
2022/12/19 06:34:56;;;;;;;29.27;19.67;;;;;;;;;;5013379;28;20590;-47
2022/12/19 06:37:22;;;;;;;33.50;20.07;;;;;;;;;;5013562;28;20483;-47
2022/12/19 06:39:49;;;;;;;33.00;21.30;;;;;;;;;;5013229;28;20480;-47
2022/12/19 06:42:24;;;;;;;33.40;19.37;;;;;;;;;;5013362;28;20462;-45
2022/12/19 06:44:51;;;;;;;30.83;19.67;;;;;;;;;;5013172;28;21030;-47
2022/12/19 06:47:17;;;;;;;30.30;19.60;;;;;;;;;;5013259;28;21017;-47
2022/12/19 06:49:45;;;;;;;33.90;21.23;;;;;;;;;;5012989;28;20483;-48
2022/12/19 06:52:11;;;;;;;31.87;20.00;;;;;;;;;;5013074;28;20570;-48
2022/12/19 06:54:37;;;;;;;34.50;20.70;;;;;;;;;;5013118;28;20791;-47
2022/12/19 06:57:03;;;;;;;33.17;20.90;;;;;;;;;;5012977;28;20487;-46
2022/12/19 06:59:29;;;;;;;34.67;21.23;;;;;;;;;;5013070;28;20889;-47
2022/12/19 07:01:57;;;;;;;31.67;20.20;;;;;;;;;;5013087;28;21087;-46
2022/12/19 07:04:26;;;;;;;34.83;21.43;;;;;;;;;;5013199;28;20731;-50
2022/12/19 07:06:53;;;;;;;36.53;21.13;;;;;;;;;;5013003;28;20440;-50
2022/12/19 07:09:20;;;;;;;35.47;21.80;;;;;;;;;;5013060;28;20437;-49
2022/12/19 07:11:47;;;;;;;33.30;21.73;;;;;;;;;;5012732;28;20471;-50
2022/12/19 07:14:13;;;;;;;35.73;21.57;;;;;;;;;;5012773;28;20532;-50
2022/12/19 07:16:39;;;;;;;37.07;23.07;;;;;;;;;;5012946;28;20436;-49
2022/12/19 07:19:06;;;;;;;32.97;21.33;;;;;;;;;;5012680;28;20797;-49
2022/12/19 07:21:32;;;;;;;37.80;21.47;;;;;;;;;;5012621;28;20627;-47
2022/12/19 07:24:00;;;;;;;39.83;22.57;;;;;;;;;;5012607;28;20523;-47
2022/12/19 07:26:26;;;;;;;39.10;22.60;;;;;;;;;;5012541;28;20452;-48
2022/12/19 07:28:52;;;;;;;36.40;22.47;;;;;;;;;;5012184;28;20857;-48
2022/12/19 07:31:18;;;;;;;37.87;23.33;;;;;;;;;;5010747;28;20530;-47
2022/12/19 07:33:44;;;;;;;39.30;23.13;;;;;;;;;;5012643;28;21193;-48
2022/12/19 07:36:10;;;;;;;39.63;24.03;;;;;;;;;;5012443;28;20456;-47
2022/12/19 07:38:36;;;;;;;39.63;23.47;;;;;;;;;;5012603;28;20473;-46
2022/12/19 07:41:04;;;;;;;41.83;24.87;;;;;;;;;;5012416;28;20437;-47
2022/12/19 07:43:30;;;;;;;40.77;25.07;;;;;;;;;;5012495;28;20441;-46
2022/12/19 07:45:56;;;;;;;41.53;25.23;;;;;;;;;;5012389;28;20436;-46
2022/12/19 07:48:22;;;;;;;43.97;25.13;;;;;;;;;;5012286;28;20919;-45
2022/12/19 07:50:49;;;;;;;46.57;26.40;;;;;;;;;;5011854;28;21002;-45
2022/12/19 07:53:15;;;;;;;46.30;25.43;;;;;;;;;;5011981;28;20464;-46
2022/12/19 07:55:41;;;;;;;46.07;24.57;;;;;;;;;;5012148;28;20463;-45
2022/12/19 07:58:09;;;;;;;46.90;27.37;;;;;;;;;;5011945;28;20444;-47
2022/12/19 08:00:35;;;;;;;46.63;25.87;;;;;;;;;;5011994;28;20437;-46
2022/12/19 08:03:01;;;;;;;49.70;26.30;;;;;;;;;;5011788;28;20764;-46
2022/12/19 08:05:27;;;;;;;43.20;25.30;;;;;;;;;;5011830;28;20448;-47
2022/12/19 08:07:53;;;;;;;48.97;27.53;;;;;;;;;;5011903;28;20444;-47
2022/12/19 08:10:21;;;;;;;47.63;25.90;;;;;;;;;;5011834;28;20499;-46
2022/12/19 08:12:47;;;;;;;46.00;26.93;;;;;;;;;;5011751;28;21016;-46
2022/12/19 08:15:14;;;;;;;53.67;29.57;;;;;;;;;;5011699;28;20444;-46
2022/12/19 08:17:40;;;;;;;49.50;27.40;;;;;;;;;;5011806;28;20539;-47
2022/12/19 08:20:07;;;;;;;46.43;27.23;;;;;;;;;;5011584;28;20444;-48
2022/12/19 08:22:34;;;;;;;52.07;28.27;;;;;;;;;;5011654;28;20440;-48
2022/12/19 08:25:00;;;;;;;47.80;27.10;;;;;;;;;;5007407;28;20435;-47
2022/12/19 08:27:26;;;;;;;47.63;27.23;;;;;;;;;;5004650;28;20441;-47
2022/12/19 08:29:52;;;;;;;45.83;25.97;;;;;;;;;;5010125;28;20463;-46
2022/12/19 08:32:20;;;;;;;54.37;29.33;;;;;;;;;;5011807;28;20229;-47
2022/12/19 08:34:46;;;;;;;46.37;28.17;;;;;;;;;;5011449;28;20452;-47
2022/12/19 08:37:12;;;;;;;51.97;28.17;;;;;;;;;;5011531;28;20440;-47
2022/12/19 08:39:38;;;;;;;50.17;27.23;;;;;;;;;;5011105;28;20472;-46
2022/12/19 08:42:04;;;;;;;49.23;26.20;;;;;;;;;;5013787;28;20945;-46
2022/12/19 08:44:30;;;;;;;51.60;28.90;;;;;;;;;;5015465;28;20241;-46
2022/12/19 08:46:56;;;;;;;50.10;28.70;;;;;;;;;;5015377;28;20468;-46
2022/12/19 08:49:23;;;;;;;54.70;28.83;;;;;;;;;;5015526;28;20197;-46
2022/12/19 08:51:49;;;;;;;53.47;28.50;;;;;;;;;;5015401;28;20523;-46
2022/12/19 08:54:15;;;;;;;50.07;28.23;;;;;;;;;;5015618;28;20444;-46
2022/12/19 08:56:41;;;;;;;53.53;28.47;;;;;;;;;;5015546;28;20838;-46
2022/12/19 08:59:07;;;;;;;50.27;29.07;;;;;;;;;;5015138;28;20247;-46
2022/12/19 09:01:33;;;;;;;50.97;28.23;;;;;;;;;;5015350;28;20197;-46
2022/12/19 09:04:00;;;;;;;52.07;27.60;;;;;;;;;;5015164;28;20434;-46
2022/12/19 09:06:27;;;;;;;49.03;28.77;;;;;;;;;;5015370;28;20221;-46
2022/12/19 09:08:53;;;;;;;48.57;27.93;;;;;;;;;;5015218;28;20468;-47
2022/12/19 09:11:19;;;;;;;55.83;29.33;;;;;;;;;;5014840;28;20475;-46
2022/12/19 09:13:46;;;;;;;59.13;29.57;;;;;;;;;;5015004;28;20775;-46
2022/12/19 09:16:13;;;;;;;51.70;27.73;;;;;;;;;;5015065;28;20464;-46
2022/12/19 09:18:40;;;;;;;53.00;28.53;;;;;;;;;;5015242;28;20432;-47
2022/12/19 09:21:07;;;;;;;53.50;28.80;;;;;;;;;;5014749;28;20432;-47
2022/12/19 09:23:35;;;;;;;54.83;29.67;;;;;;;;;;5014744;28;20433;-47
2022/12/19 09:26:02;;;;;;;50.30;27.80;;;;;;;;;;5014603;28;20480;-47
2022/12/19 09:28:29;;;;;;;55.33;28.67;;;;;;;;;;5014780;28;20531;-48
2022/12/19 09:30:55;;;;;;;53.37;27.90;;;;;;;;;;5014717;28;20471;-47
2022/12/19 09:33:21;;;;;;;50.30;25.97;;;;;;;;;;5014682;28;20440;-47
2022/12/19 09:35:48;;;;;;;48.03;27.47;;;;;;;;;;5014380;28;20467;-46
2022/12/19 09:38:14;;;;;;;46.97;27.37;;;;;;;;;;5014394;28;20443;-47
2022/12/19 09:40:51;;;;;;;52.30;28.63;;;;;;;;;;5014690;28;20436;-46
2022/12/19 09:43:22;;;;;;;50.90;27.53;;;;;;;;;;5014582;28;20201;-46
2022/12/19 09:45:51;;;;;;;45.50;25.37;;;;;;;;;;5014248;28;20464;-47
2022/12/19 09:48:17;;;;;;;48.83;27.17;;;;;;;;;;5014731;28;20524;-45
2022/12/19 09:50:47;;;;;;;47.50;25.63;;;;;;;;;;5014245;28;21085;-46
2022/12/19 09:53:17;;;;;;;51.80;25.43;;;;;;;;;;5013862;28;20924;-47
2022/12/19 09:55:46;;;;;;;46.93;24.87;;;;;;;;;;5012982;28;20867;-47
2022/12/19 09:58:14;;;;;;;47.00;25.63;;;;;;;;;;5013963;28;20866;-47
2022/12/19 10:00:42;;;;;;;39.93;23.47;;;;;;;;;;5014448;28;20444;-47
2022/12/19 10:03:14;;;;;;;40.50;23.77;;;;;;;;;;5014216;28;20436;-47
2022/12/19 10:05:42;;;;;;;43.90;23.70;;;;;;;;;;5014205;28;20437;-47
2022/12/19 10:08:14;;;;;;;38.77;22.87;;;;;;;;;;5014082;28;20436;-47
2022/12/19 10:10:44;;;;;;;40.90;23.60;;;;;;;;;;5013811;28;20445;-46
2022/12/19 10:13:15;;;;;;;37.60;22.00;;;;;;;;;;5014044;28;20491;-47
2022/12/19 10:15:46;;;;;;;35.23;21.47;;;;;;;;;;5010313;28;20968;-47
2022/12/19 10:18:30;;;;;;;37.40;22.60;;;;;;;;;;5013878;28;20499;-46
2022/12/19 10:21:01;;;;;;;39.20;21.90;;;;;;;;;;5013686;28;20439;-48
2022/12/19 10:23:50;;;;;;;38.17;22.17;;;;;;;;;;5013848;28;20495;-48
2022/12/19 10:26:18;;;;;;;35.73;22.27;;;;;;;;;;5013978;28;21204;-46
2022/12/19 10:28:50;;;;;;;39.50;23.67;;;;;;;;;;5013819;28;20915;-48
2022/12/19 10:31:18;;;;;;;36.17;21.80;;;;;;;;;;5013694;28;20546;-47
2022/12/19 10:33:46;;;;;;;36.70;22.53;;;;;;;;;;5012000;28;20435;-46
2022/12/19 10:36:12;;;;;;;32.73;20.67;;;;;;;;;;5012015;28;20480;-48
2022/12/19 10:38:42;;;;;;;33.60;22.20;;;;;;;;;;5013529;28;20472;-47
2022/12/19 10:41:13;;;;;;;34.70;21.37;;;;;;;;;;5013628;28;20527;-47
2022/12/19 10:43:42;;;;;;;32.80;20.13;;;;;;;;;;5013756;28;20433;-46
2022/12/19 10:46:13;;;;;;;35.87;20.97;;;;;;;;;;5013846;28;20445;-47
2022/12/19 10:48:39;;;;;;;33.53;21.13;;;;;;;;;;5013744;28;20468;-46
2022/12/19 10:51:09;;;;;;;31.67;21.07;;;;;;;;;;5013522;28;20496;-45
2022/12/19 10:53:35;;;;;;;32.83;20.23;;;;;;;;;;5013727;28;20988;-46
2022/12/19 10:56:02;;;;;;;26.67;18.40;;;;;;;;;;5013515;28;20445;-46
2022/12/19 10:58:32;;;;;;;30.80;19.03;;;;;;;;;;5013582;28;20444;-46
2022/12/19 11:01:03;;;;;;;29.47;19.07;;;;;;;;;;5013275;28;20443;-46
2022/12/19 11:03:31;;;;;;;27.60;18.90;;;;;;;;;;5012736;28;20499;-46
2022/12/19 11:05:58;;;;;;;26.80;17.73;;;;;;;;;;5013346;28;20440;-46
2022/12/19 11:08:25;;;;;;;28.17;18.77;;;;;;;;;;5013515;28;20432;-46
2022/12/19 11:10:53;;;;;;;23.50;16.90;;;;;;;;;;5013285;28;20464;-46
2022/12/19 11:13:20;;;;;;;24.47;17.40;;;;;;;;;;5013455;28;20475;-46
2022/12/19 11:15:47;;;;;;;22.00;16.97;;;;;;;;;;5013309;28;20441;-46
2022/12/19 11:18:15;;;;;;;23.17;17.47;;;;;;;;;;5013208;28;20441;-46
2022/12/19 11:20:52;;;;;;;23.00;17.07;;;;;;;;;;5013164;28;20441;-46
2022/12/19 11:23:18;;;;;;;22.77;16.67;;;;;;;;;;5013285;28;20531;-46
2022/12/19 11:25:52;;;;;;;21.83;16.37;;;;;;;;;;5013031;28;20456;-46
2022/12/19 11:28:20;;;;;;;20.43;14.83;;;;;;;;;;5012977;28;20870;-47
2022/12/19 11:30:54;;;;;;;22.27;16.07;;;;;;;;;;5012618;28;20432;-46
2022/12/19 11:33:20;;;;;;;20.53;15.23;;;;;;;;;;5012729;28;20428;-46
2022/12/19 11:35:49;;;;;;;20.97;16.00;;;;;;;;;;5012556;28;20514;-46
2022/12/19 11:38:17;;;;;;;22.03;16.00;;;;;;;;;;5012344;28;20475;-46
2022/12/19 11:40:45;;;;;;;21.17;15.20;;;;;;;;;;5012622;28;20455;-46
2022/12/19 11:43:13;;;;;;;21.93;15.67;;;;;;;;;;5012495;28;20954;-46
2022/12/19 11:45:43;;;;;;;19.20;15.20;;;;;;;;;;5012722;28;20447;-46
2022/12/19 11:48:11;;;;;;;19.30;15.07;;;;;;;;;;5012508;28;20440;-46
2022/12/19 11:50:40;;;;;;;19.10;15.60;;;;;;;;;;5012310;28;20992;-46
2022/12/19 11:53:14;;;;;;;21.73;15.23;;;;;;;;;;5012380;28;20429;-46
2022/12/19 11:55:42;;;;;;;18.53;14.90;;;;;;;;;;5008045;28;21009;-47
2022/12/19 11:58:09;;;;;;;19.47;15.00;;;;;;;;;;5029484;28;20447;-47
2022/12/19 12:00:36;;;;;;;20.50;15.77;;;;;;;;;;5032001;28;20535;-47
2022/12/19 12:03:11;;;;;;;21.27;16.47;;;;;;;;;;5031892;28;20455;-46
2022/12/19 12:05:42;;;;;;;20.63;16.03;;;;;;;;;;5032030;28;20853;-47
2022/12/19 12:08:23;;;;;;;20.70;15.87;;;;;;;;;;5024505;28;20563;-45
2022/12/19 12:10:53;;;;;;;18.57;16.07;;;;;;;;;;5010187;28;20532;-45
2022/12/19 12:13:24;;;;;;;17.60;14.47;;;;;;;;;;5011857;28;20501;-47
2022/12/19 12:15:55;;;;;;;20.60;16.17;;;;;;;;;;5011804;28;20444;-46
2022/12/19 12:18:29;;;;;;;18.93;15.30;;;;;;;;;;5011976;28;20862;-47
2022/12/19 12:21:01;;;;;;;21.20;15.63;;;;;;;;;;5011676;28;20440;-47
2022/12/19 12:23:29;;;;;;;20.17;15.87;;;;;;;;;;5012131;28;20438;-47
2022/12/19 12:26:01;;;;;;;24.53;17.03;;;;;;;;;;5011797;28;20808;-47
2022/12/19 12:28:38;;;;;;;22.57;16.30;;;;;;;;;;5012318;28;20456;-47
2022/12/19 12:31:08;;;;;;;23.03;17.97;;;;;;;;;;5011689;28;20545;-48
2022/12/19 12:33:40;;;;;;;23.20;17.97;;;;;;;;;;5011377;28;20510;-48
2022/12/19 12:36:12;;;;;;;23.23;18.23;;;;;;;;;;5011878;28;20547;-47
2022/12/19 12:38:44;;;;;;;24.83;17.90;;;;;;;;;;5011779;28;20476;-47
2022/12/19 12:41:19;;;;;;;23.07;17.03;;;;;;;;;;5011652;28;20480;-48
2022/12/19 12:43:55;;;;;;;19.47;15.40;;;;;;;;;;5008337;28;20444;-47
2022/12/19 12:46:23;;;;;;;22.00;16.97;;;;;;;;;;5011733;28;20950;-47
2022/12/19 12:48:51;;;;;;;23.00;17.20;;;;;;;;;;5011490;28;20922;-47
2022/12/19 12:51:17;;;;;;;19.87;16.17;;;;;;;;;;5011585;28;20527;-48
2022/12/19 12:53:44;;;;;;;23.00;17.87;;;;;;;;;;5011695;28;20439;-47
2022/12/19 12:56:13;;;;;;;22.67;17.77;;;;;;;;;;5011593;28;20456;-47
2022/12/19 12:59:02;;;;;;;20.33;16.63;;;;;;;;;;5011812;28;20483;-47
2022/12/19 13:01:33;;;;;;;24.37;16.70;;;;;;;;;;5011764;28;20483;-48
2022/12/19 13:04:01;;;;;;;21.87;15.90;;;;;;;;;;5011679;28;20448;-47
2022/12/19 13:06:33;;;;;;;23.80;16.90;;;;;;;;;;5011829;28;20821;-46
2022/12/19 13:09:02;;;;;;;22.37;16.53;;;;;;;;;;5011670;28;20435;-47
2022/12/19 13:14:40;;;;;;;19.30;15.47;;;;;;;;;;5011641;28;20458;-47
2022/12/19 13:17:08;;;;;;;20.90;14.60;;;;;;;;;;5011193;28;20411;-47
2022/12/19 13:19:34;;;;;;;20.20;16.23;;;;;;;;;;5011100;28;20432;-47
2022/12/19 13:22:14;;;;;;;17.67;15.13;;;;;;;;;;5011049;28;20910;-48
2022/12/19 13:24:41;;;;;;;18.33;15.50;;;;;;;;;;5011410;28;20451;-48
2022/12/19 13:27:30;;;;;;;19.63;15.33;;;;;;;;;;5012205;28;20911;-47
2022/12/19 13:30:06;;;;;;;18.33;14.70;;;;;;;;;;5014875;28;20444;-46
2022/12/19 13:32:53;;;;;;;19.07;14.93;;;;;;;;;;5014956;28;20518;-46
2022/12/19 13:35:33;;;;;;;20.17;15.10;;;;;;;;;;5014511;28;20452;-47
2022/12/19 13:38:00;;;;;;;19.37;14.77;;;;;;;;;;5014676;28;20437;-47
2022/12/19 13:40:27;;;;;;;21.10;15.00;;;;;;;;;;5014481;28;20921;-47
2022/12/19 13:45:48;;;;;;;19.00;15.33;;;;;;;;;;5014683;28;20200;-47
2022/12/19 13:48:19;;;;;;;18.70;15.73;;;;;;;;;;5014367;28;20224;-46
2022/12/19 13:50:46;;;;;;;19.63;15.90;;;;;;;;;;5014502;28;20444;-46
2022/12/19 13:53:14;;;;;;;18.90;15.50;;;;;;;;;;5014237;28;20564;-47
2022/12/19 13:55:40;;;;;;;20.97;15.73;;;;;;;;;;5014361;28;20531;-46
2022/12/19 13:58:07;;;;;;;22.67;16.47;;;;;;;;;;5014342;28;20483;-46
2022/12/19 14:00:34;;;;;;;20.00;16.07;;;;;;;;;;5014634;28;20444;-46
2022/12/19 14:03:00;;;;;;;25.17;16.80;;;;;;;;;;5014189;28;20850;-46
2022/12/19 14:05:30;;;;;;;24.00;16.77;;;;;;;;;;5014416;28;20421;-47
2022/12/19 14:07:56;;;;;;;25.60;17.43;;;;;;;;;;5014149;28;20448;-46
2022/12/19 14:10:24;;;;;;;21.23;16.77;;;;;;;;;;5014183;28;20523;-46
2022/12/19 14:15:36;;;;;;;23.23;17.57;;;;;;;;;;5014148;28;20937;-47
2022/12/19 14:18:09;;;;;;;22.17;17.57;;;;;;;;;;5013742;28;20432;-47
2022/12/19 14:20:36;;;;;;;24.07;18.47;;;;;;;;;;5014018;28;20436;-46
2022/12/19 14:23:03;;;;;;;22.47;17.67;;;;;;;;;;5013765;28;20464;-46
2022/12/19 14:25:33;;;;;;;27.73;19.23;;;;;;;;;;5013824;28;20452;-47
2022/12/19 14:28:01;;;;;;;28.93;19.90;;;;;;;;;;5013769;28;20480;-47
2022/12/19 14:30:29;;;;;;;24.97;19.00;;;;;;;;;;5013910;28;20857;-46
2022/12/19 14:32:56;;;;;;;27.57;20.07;;;;;;;;;;5013454;28;20839;-46